createdAt,value
2024-03-26T00:02:17.437Z,88.37
2024-03-26T00:04:49.790Z,88.49
2024-03-26T00:07:24.603Z,88.11
2024-03-26T00:09:58.768Z,87.99
2024-03-26T00:12:32.909Z,87.88
2024-03-26T00:15:06.239Z,88.25
2024-03-26T00:17:40.190Z,88.17
2024-03-26T00:20:14.919Z,88.37
2024-03-26T00:22:47.156Z,87.76
2024-03-26T00:25:21.925Z,88.30
2024-03-26T00:28:05.692Z,88.37
2024-03-26T00:30:38.278Z,88.20
2024-03-26T00:33:11.306Z,88.14
2024-03-26T00:35:44.427Z,88.17
2024-03-26T00:38:17.882Z,88.21
2024-03-26T00:40:50.352Z,88.25
2024-03-26T00:43:28.429Z,88.02
2024-03-26T00:46:02.529Z,88.23
2024-03-26T00:48:36.272Z,88.32
2024-03-26T00:51:10.666Z,88.00
2024-03-26T00:53:43.981Z,88.21
2024-03-26T00:56:17.500Z,88.01
2024-03-26T00:58:52.920Z,88.21
2024-03-26T01:01:28.597Z,88.06
2024-03-26T01:04:02.516Z,87.92
2024-03-26T01:06:35.172Z,87.92
2024-03-26T01:09:09.187Z,88.32
2024-03-26T01:11:42.612Z,88.15
2024-03-26T01:14:18.126Z,88.08
2024-03-26T01:16:50.426Z,88.23
2024-03-26T01:19:25.615Z,88.11
2024-03-26T01:22:01.819Z,88.31
2024-03-26T01:24:37.516Z,88.34
2024-03-26T01:27:11.746Z,88.13
2024-03-26T01:29:45.688Z,88.43
2024-03-26T01:32:18.677Z,88.34
2024-03-26T01:34:55.298Z,88.27
2024-03-26T01:37:28.339Z,88.51
2024-03-26T01:40:00.929Z,88.25
2024-03-26T01:42:35.795Z,88.39
2024-03-26T01:45:11.690Z,88.57
2024-03-26T01:47:45.845Z,88.63
2024-03-26T01:50:20.010Z,88.57
2024-03-26T01:52:54.701Z,89.11
2024-03-26T01:55:29.473Z,89.40
2024-03-26T01:58:05.363Z,89.36
2024-03-26T02:00:39.675Z,89.05
2024-03-26T02:03:10.966Z,89.23
2024-03-26T02:05:42.946Z,89.25
2024-03-26T02:11:44.954Z,89.19
2024-03-26T02:14:19.152Z,89.12
2024-03-26T02:16:50.435Z,89.00
2024-03-26T02:19:36.740Z,89.03
2024-03-26T02:22:24.361Z,89.05
2024-03-26T02:24:57.361Z,88.63
2024-03-26T02:27:30.489Z,88.97
2024-03-26T02:30:03.976Z,88.85
2024-03-26T02:32:37.185Z,88.59
2024-03-26T02:35:16.980Z,88.64
2024-03-26T02:37:51.441Z,88.84
2024-03-26T02:40:25.662Z,88.34
2024-03-26T02:42:59.749Z,88.88
2024-03-26T02:45:35.535Z,88.63
2024-03-26T02:48:10.307Z,88.30
2024-03-26T02:50:43.271Z,88.18
2024-03-26T02:53:16.617Z,88.54
2024-03-26T02:55:49.927Z,88.65
2024-03-26T02:58:22.895Z,88.56
2024-03-26T03:01:06.250Z,88.59
2024-03-26T03:03:41.470Z,88.46
2024-03-26T03:06:15.514Z,88.54
2024-03-26T03:08:48.981Z,88.46
2024-03-26T03:11:23.898Z,88.69
2024-03-26T03:13:57.485Z,88.44
2024-03-26T03:16:30.582Z,88.59
2024-03-26T03:19:03.828Z,88.34
2024-03-26T03:21:37.466Z,88.31
2024-03-26T03:24:11.098Z,88.25
2024-03-26T03:26:45.459Z,88.21
2024-03-26T03:29:18.550Z,88.49
2024-03-26T03:31:52.446Z,88.26
2024-03-26T03:34:25.548Z,88.50
2024-03-26T03:36:58.689Z,88.53
2024-03-26T03:39:34.976Z,88.69
2024-03-26T03:42:09.077Z,88.69
2024-03-26T03:44:42.680Z,88.77
2024-03-26T03:47:16.914Z,89.00
2024-03-26T03:49:51.039Z,88.93
2024-03-26T03:52:25.162Z,89.19
2024-03-26T03:54:57.966Z,89.10
2024-03-26T03:57:34.165Z,89.23
2024-03-26T04:00:12.082Z,89.25
2024-03-26T04:02:47.051Z,89.03
2024-03-26T04:05:20.957Z,89.30
2024-03-26T04:07:54.659Z,89.34
2024-03-26T04:10:30.424Z,89.20
2024-03-26T04:13:03.516Z,89.50
2024-03-26T04:15:42.543Z,88.97
2024-03-26T04:18:16.037Z,89.24
2024-03-26T04:20:50.472Z,89.29
2024-03-26T04:23:44.778Z,89.02
2024-03-26T04:26:18.541Z,88.87
2024-03-26T04:28:54.107Z,88.79
2024-03-26T04:31:26.471Z,88.80
2024-03-26T04:34:00.206Z,89.19
2024-03-26T04:36:36.421Z,89.19
2024-03-26T04:39:12.490Z,89.38
2024-03-26T04:41:47.067Z,89.60
2024-03-26T04:44:18.860Z,89.71
2024-03-26T04:46:52.338Z,89.71
2024-03-26T04:49:26.628Z,89.99
2024-03-26T04:51:59.723Z,89.91
2024-03-26T04:54:36.419Z,90.18
2024-03-26T04:57:09.042Z,90.58
2024-03-26T04:59:42.978Z,90.51
2024-03-26T05:02:15.958Z,90.44
2024-03-26T05:04:49.884Z,90.27
2024-03-26T05:07:23.334Z,90.45
2024-03-26T05:09:56.023Z,90.76
2024-03-26T05:12:32.217Z,90.64
2024-03-26T05:15:08.565Z,90.88
2024-03-26T05:17:41.301Z,90.71
2024-03-26T05:20:15.773Z,90.74
2024-03-26T05:22:48.241Z,90.85
2024-03-26T05:25:22.004Z,90.90
2024-03-26T05:27:56.223Z,91.50
2024-03-26T05:30:29.623Z,91.40
2024-03-26T05:33:02.167Z,91.55
2024-03-26T05:35:36.836Z,91.45
2024-03-26T05:38:11.389Z,91.68
2024-03-26T05:40:48.123Z,91.48
2024-03-26T05:43:22.884Z,91.69
2024-03-26T05:45:56.230Z,91.41
2024-03-26T05:48:30.322Z,91.57
2024-03-26T05:51:02.736Z,91.34
2024-03-26T05:53:36.794Z,91.65
2024-03-26T05:56:10.116Z,91.70
2024-03-26T05:58:44.047Z,91.92
2024-03-26T06:01:16.331Z,91.65
2024-03-26T06:03:51.614Z,91.73
2024-03-26T06:06:25.351Z,91.76
2024-03-26T06:08:58.382Z,91.83
2024-03-26T06:11:33.015Z,91.71
2024-03-26T06:14:06.403Z,91.82
2024-03-26T06:16:40.396Z,91.66
2024-03-26T06:19:14.157Z,91.97
2024-03-26T06:21:47.527Z,91.97
2024-03-26T06:24:22.106Z,91.75
2024-03-26T06:26:56.248Z,91.62
2024-03-26T06:29:29.936Z,92.04
2024-03-26T06:32:05.201Z,91.96
2024-03-26T06:34:40.230Z,92.09
2024-03-26T06:37:14.531Z,92.25
2024-03-26T06:39:49.026Z,92.56
2024-03-26T06:42:24.854Z,92.53
2024-03-26T06:44:59.787Z,92.47
2024-03-26T06:47:32.451Z,92.55
2024-03-26T06:50:05.819Z,92.77
2024-03-26T06:52:39.143Z,92.61
2024-03-26T06:55:18.216Z,93.11
2024-03-26T06:57:52.255Z,93.08
2024-03-26T07:00:29.008Z,93.03
2024-03-26T07:03:05.671Z,92.85
2024-03-26T07:05:46.794Z,93.11
2024-03-26T07:08:25.316Z,93.16
2024-03-26T07:10:58.604Z,93.71
2024-03-26T07:13:32.218Z,93.55
2024-03-26T07:16:05.563Z,93.57
2024-03-26T07:18:39.222Z,93.67
2024-03-26T07:21:11.655Z,93.93
2024-03-26T07:23:48.839Z,93.68
2024-03-26T07:26:23.704Z,93.62
2024-03-26T07:28:57.591Z,93.53
2024-03-26T07:31:43.998Z,93.48
2024-03-26T07:34:29.778Z,93.58
2024-03-26T07:37:02.229Z,93.48
2024-03-26T07:39:38.684Z,93.72
2024-03-26T07:42:12.200Z,93.77
2024-03-26T07:44:45.662Z,93.90
2024-03-26T07:47:20.779Z,93.64
2024-03-26T07:49:54.583Z,94.12
2024-03-26T07:52:29.652Z,94.39
2024-03-26T07:55:04.090Z,94.62
2024-03-26T07:57:40.884Z,94.76
2024-03-26T08:00:18.447Z,94.47
2024-03-26T08:02:54.903Z,94.64
2024-03-26T08:05:30.825Z,94.59
2024-03-26T08:08:05.677Z,94.80
2024-03-26T08:10:45.165Z,95.07
2024-03-26T08:13:23.467Z,95.16
2024-03-26T08:15:56.846Z,95.10
2024-03-26T08:18:34.953Z,95.08
2024-03-26T08:21:09.727Z,94.67
2024-03-26T08:23:42.653Z,94.76
2024-03-26T08:26:15.790Z,94.77
2024-03-26T08:28:48.453Z,95.04
2024-03-26T08:31:23.591Z,95.11
2024-03-26T08:33:57.042Z,95.12
2024-03-26T08:36:30.979Z,94.93
2024-03-26T08:39:11.529Z,94.76
2024-03-26T08:41:45.883Z,94.50
2024-03-26T08:44:20.354Z,94.41
2024-03-26T08:46:59.986Z,94.46
2024-03-26T08:49:34.616Z,94.32
2024-03-26T08:52:14.539Z,94.02
2024-03-26T08:54:48.987Z,94.05
2024-03-26T08:57:31.439Z,94.23
2024-03-26T09:00:12.026Z,94.39
2024-03-26T09:02:45.608Z,94.31
2024-03-26T09:05:18.919Z,94.03
2024-03-26T09:07:51.943Z,93.97
2024-03-26T09:10:25.879Z,93.90
2024-03-26T09:13:00.494Z,93.33
2024-03-26T09:15:37.567Z,93.16
2024-03-26T09:18:11.279Z,93.09
2024-03-26T09:20:45.887Z,93.01
2024-03-26T09:23:22.786Z,92.93
2024-03-26T09:26:02.558Z,93.06
2024-03-26T09:28:51.837Z,93.02
2024-03-26T09:31:27.972Z,93.03
2024-03-26T09:34:04.559Z,92.93
2024-03-26T09:36:41.317Z,92.76
2024-03-26T09:39:15.533Z,92.72
2024-03-26T09:41:54.045Z,92.44
2024-03-26T09:44:29.937Z,91.92
2024-03-26T09:47:09.054Z,91.98
2024-03-26T09:49:43.417Z,91.67
2024-03-26T09:52:20.264Z,91.79
2024-03-26T09:54:58.935Z,91.15
2024-03-26T09:57:33.203Z,91.37
2024-03-26T10:00:05.687Z,90.98
2024-03-26T10:02:40.843Z,90.62
2024-03-26T10:05:18.058Z,90.20
2024-03-26T10:07:51.567Z,89.84
2024-03-26T10:10:26.689Z,89.65
2024-03-26T10:13:11.767Z,89.53
2024-03-26T10:15:47.637Z,88.98
2024-03-26T10:18:36.321Z,88.85
2024-03-26T10:21:16.744Z,88.94
2024-03-26T10:23:50.160Z,88.90
2024-03-26T10:26:26.454Z,88.61
2024-03-26T10:29:00.731Z,88.16
2024-03-26T10:31:36.626Z,88.13
2024-03-26T10:34:11.103Z,88.22
2024-03-26T10:36:46.212Z,88.14
2024-03-26T10:39:21.417Z,87.45
2024-03-26T10:41:57.603Z,86.87
2024-03-26T10:44:32.492Z,86.83
2024-03-26T10:47:11.635Z,86.82
2024-03-26T10:49:45.374Z,86.56
2024-03-26T10:52:20.903Z,86.47
2024-03-26T10:55:01.433Z,86.38
2024-03-26T10:57:36.173Z,86.39
2024-03-26T11:00:15.417Z,86.46
2024-03-26T11:02:54.985Z,86.50
2024-03-26T11:05:29.165Z,86.40
2024-03-26T11:08:07.661Z,86.43
2024-03-26T11:11:01.215Z,86.67
2024-03-26T11:13:36.501Z,86.56
2024-03-26T11:16:10.958Z,86.03
2024-03-26T11:18:46.079Z,85.90
2024-03-26T11:21:20.697Z,86.28
2024-03-26T11:23:57.995Z,86.51
2024-03-26T11:26:31.271Z,86.43
2024-03-26T11:29:10.785Z,86.23
2024-03-26T11:31:46.400Z,86.22
2024-03-26T11:34:22.636Z,85.77
2024-03-26T11:36:58.955Z,85.87
2024-03-26T11:39:34.950Z,85.84
2024-03-26T11:42:08.228Z,86.19
2024-03-26T11:44:41.159Z,86.35
2024-03-26T11:47:15.734Z,86.28
2024-03-26T11:49:51.234Z,86.22
2024-03-26T11:52:27.265Z,86.04
2024-03-26T11:55:02.938Z,86.13
2024-03-26T11:57:39.418Z,86.02
2024-03-26T12:00:18.844Z,85.65
2024-03-26T12:02:53.378Z,85.71
2024-03-26T12:05:26.920Z,85.36
2024-03-26T12:08:02.346Z,85.12
2024-03-26T12:10:36.241Z,85.09
2024-03-26T12:13:10.261Z,85.17
2024-03-26T12:15:45.354Z,84.99
2024-03-26T12:18:20.591Z,84.50
2024-03-26T12:21:00.595Z,84.03
2024-03-26T12:23:34.770Z,83.83
2024-03-26T12:26:10.123Z,83.32
2024-03-26T12:28:44.832Z,82.89
2024-03-26T12:31:19.546Z,82.57
2024-03-26T12:34:00.347Z,82.39
2024-03-26T12:36:34.179Z,82.19
2024-03-26T12:39:11.226Z,81.95
2024-03-26T12:41:44.078Z,81.40
2024-03-26T12:44:19.923Z,80.33
2024-03-26T12:46:56.580Z,79.28
2024-03-26T12:49:32.060Z,79.03
2024-03-26T12:52:06.090Z,78.07
2024-03-26T12:54:40.688Z,77.49
2024-03-26T12:57:15.372Z,77.39
2024-03-26T12:59:49.408Z,76.86
2024-03-26T13:02:24.074Z,76.29
2024-03-26T13:04:59.079Z,76.14
2024-03-26T13:07:33.351Z,75.62
2024-03-26T13:10:08.366Z,75.54
2024-03-26T13:12:43.899Z,75.42
2024-03-26T13:15:18.737Z,75.03
2024-03-26T13:17:52.813Z,74.75
2024-03-26T13:20:28.095Z,74.15
2024-03-26T13:23:01.690Z,74.07
2024-03-26T13:25:36.851Z,73.43
2024-03-26T13:28:11.171Z,72.51
2024-03-26T13:30:46.175Z,72.03
2024-03-26T13:33:18.639Z,71.54
2024-03-26T13:35:51.651Z,71.15
2024-03-26T13:38:25.344Z,70.58
2024-03-26T13:41:00.189Z,69.65
2024-03-26T13:43:34.787Z,68.91
2024-03-26T13:46:09.808Z,68.72
2024-03-26T13:48:43.302Z,68.85
2024-03-26T13:51:18.393Z,68.13
2024-03-26T13:53:50.111Z,67.96
2024-03-26T13:56:24.143Z,67.89
2024-03-26T13:58:57.293Z,67.94
2024-03-26T14:01:33.919Z,68.26
2024-03-26T14:04:08.529Z,68.21
2024-03-26T14:06:41.796Z,68.10
2024-03-26T14:09:15.057Z,68.02
2024-03-26T14:11:48.846Z,67.80
2024-03-26T14:14:23.861Z,67.29
2024-03-26T14:16:58.478Z,67.39
2024-03-26T14:19:32.682Z,67.32
2024-03-26T14:22:06.253Z,66.99
2024-03-26T14:24:41.797Z,67.08
2024-03-26T14:27:16.568Z,67.14
2024-03-26T14:29:50.387Z,67.16
2024-03-26T14:32:25.286Z,66.96
2024-03-26T14:35:00.379Z,66.01
2024-03-26T14:37:34.075Z,65.78
2024-03-26T14:40:11.479Z,65.77
2024-03-26T14:42:45.888Z,65.71
2024-03-26T14:45:19.218Z,65.49
2024-03-26T14:48:10.896Z,65.43
2024-03-26T14:50:53.055Z,65.54
2024-03-26T14:53:27.016Z,65.80
2024-03-26T14:56:02.407Z,65.70
2024-03-26T14:58:35.505Z,65.93
2024-03-26T15:01:10.836Z,65.87
2024-03-26T15:03:45.422Z,66.10
2024-03-26T15:06:20.278Z,66.10
2024-03-26T15:08:55.186Z,65.86
2024-03-26T15:11:29.541Z,66.02
2024-03-26T15:14:03.191Z,66.28
2024-03-26T15:16:36.883Z,66.39
2024-03-26T15:19:10.958Z,66.41
2024-03-26T15:21:45.403Z,66.35
2024-03-26T15:24:18.759Z,66.29
2024-03-26T15:27:11.365Z,66.57
2024-03-26T15:30:02.733Z,66.46
2024-03-26T15:32:35.758Z,66.40
2024-03-26T15:35:11.882Z,66.44
2024-03-26T15:37:45.883Z,66.49
2024-03-26T15:40:20.003Z,66.35
2024-03-26T15:42:55.687Z,66.12
2024-03-26T15:45:29.188Z,66.12
2024-03-26T15:48:04.692Z,66.01
2024-03-26T15:50:38.268Z,66.18
2024-03-26T15:53:15.012Z,65.73
2024-03-26T15:55:52.919Z,65.25
2024-03-26T15:58:29.871Z,65.33
2024-03-26T16:01:05.131Z,65.13
2024-03-26T16:03:54.153Z,65.13
2024-03-26T16:06:25.553Z,64.93
2024-03-26T16:08:58.004Z,64.89
2024-03-26T16:11:32.364Z,64.88
2024-03-26T16:14:05.695Z,64.85
2024-03-26T16:16:39.324Z,64.59
2024-03-26T16:19:14.571Z,64.32
2024-03-26T16:21:49.933Z,64.65
2024-03-26T16:24:26.406Z,64.74
2024-03-26T16:27:02.104Z,64.75
2024-03-26T16:29:36.673Z,64.50
2024-03-26T16:32:14.023Z,64.51
2024-03-26T16:34:54.707Z,64.28
2024-03-26T16:37:31.627Z,64.26
2024-03-26T16:40:08.222Z,64.38
2024-03-26T16:42:41.825Z,64.36
2024-03-26T16:45:15.878Z,64.83
2024-03-26T16:47:50.496Z,64.71
2024-03-26T16:50:26.791Z,64.76
2024-03-26T16:53:02.239Z,64.81
2024-03-26T16:55:35.564Z,64.95
2024-03-26T16:58:10.756Z,65.01
2024-03-26T17:00:49.415Z,65.27
2024-03-26T17:03:23.298Z,65.40
2024-03-26T17:05:57.467Z,65.46
2024-03-26T17:08:30.473Z,65.67
2024-03-26T17:11:05.174Z,65.85
2024-03-26T17:13:41.744Z,65.84
2024-03-26T17:16:17.368Z,65.94
2024-03-26T17:18:51.024Z,66.07
2024-03-26T17:21:25.629Z,66.42
2024-03-26T17:23:58.723Z,66.39
2024-03-26T17:26:37.259Z,66.59
2024-03-26T17:29:14.341Z,66.58
2024-03-26T17:31:50.338Z,66.74
2024-03-26T17:34:28.839Z,66.99
2024-03-26T17:37:12.797Z,66.93
2024-03-26T17:39:46.705Z,66.99
2024-03-26T17:42:19.990Z,67.07
2024-03-26T17:44:53.701Z,67.29
2024-03-26T17:47:26.605Z,67.51
2024-03-26T17:50:14.951Z,67.60
2024-03-26T17:52:48.494Z,67.68
2024-03-26T17:55:22.854Z,67.90
2024-03-26T17:57:57.745Z,67.97
2024-03-26T18:00:31.734Z,68.08
2024-03-26T18:03:04.583Z,68.15
2024-03-26T18:05:41.736Z,68.09
2024-03-26T18:08:15.420Z,68.16
2024-03-26T18:10:56.473Z,68.45
2024-03-26T18:13:30.900Z,68.34
2024-03-26T18:16:09.359Z,68.49
2024-03-26T18:18:41.947Z,68.38
2024-03-26T18:21:15.880Z,68.53
2024-03-26T18:23:48.210Z,68.59
2024-03-26T18:26:22.114Z,68.67
2024-03-26T18:29:00.156Z,68.59
2024-03-26T18:31:33.658Z,68.76
2024-03-26T18:34:08.187Z,68.81
2024-03-26T18:36:42.772Z,68.71
2024-03-26T18:39:14.534Z,68.84
2024-03-26T18:41:49.153Z,68.93
2024-03-26T18:44:23.880Z,68.91
2024-03-26T18:46:56.149Z,68.96
2024-03-26T18:49:28.553Z,69.05
2024-03-26T18:52:06.914Z,68.89
2024-03-26T18:54:44.582Z,68.85
2024-03-26T18:57:22.436Z,68.96
2024-03-26T19:00:01.180Z,68.78
2024-03-26T19:02:34.665Z,69.04
2024-03-26T19:05:29.152Z,69.04
2024-03-26T19:08:07.445Z,69.14
2024-03-26T19:10:44.227Z,69.21
2024-03-26T19:13:17.947Z,69.31
2024-03-26T19:15:55.928Z,69.13
2024-03-26T19:18:29.867Z,69.19
2024-03-26T19:21:04.783Z,69.09
2024-03-26T19:23:37.131Z,69.07
2024-03-26T19:26:12.379Z,69.09
2024-03-26T19:28:46.546Z,69.25
2024-03-26T19:31:23.532Z,69.15
2024-03-26T19:34:01.665Z,69.21
2024-03-26T19:36:35.022Z,69.29
2024-03-26T19:39:11.768Z,69.27
2024-03-26T19:41:46.680Z,69.14
2024-03-26T19:44:28.171Z,69.06
2024-03-26T19:47:06.556Z,69.28
2024-03-26T19:49:40.980Z,69.07
2024-03-26T19:52:15.762Z,69.13
2024-03-26T19:54:48.982Z,69.04
2024-03-26T19:57:22.594Z,69.07
2024-03-26T19:59:57.840Z,69.17
2024-03-26T20:02:32.954Z,69.12
2024-03-26T20:05:09.072Z,69.06
2024-03-26T20:07:43.242Z,69.03
2024-03-26T20:10:16.986Z,69.09
2024-03-26T20:12:50.156Z,69.16
2024-03-26T20:15:23.975Z,69.12
2024-03-26T20:17:57.243Z,69.11
2024-03-26T20:20:30.259Z,69.21
2024-03-26T20:23:03.973Z,69.41
2024-03-26T20:25:38.580Z,69.28
2024-03-26T20:28:13.838Z,69.26
2024-03-26T20:30:47.804Z,69.18
2024-03-26T20:33:24.580Z,69.30
2024-03-26T20:35:58.439Z,69.20
2024-03-26T20:38:32.824Z,69.11
2024-03-26T20:41:09.003Z,69.11
2024-03-26T20:43:44.795Z,69.21
2024-03-26T20:46:17.662Z,69.23
2024-03-26T20:48:51.157Z,69.13
2024-03-26T20:51:29.445Z,69.21
2024-03-26T20:54:02.366Z,69.05
2024-03-26T20:56:36.468Z,68.82
2024-03-26T20:59:10.505Z,69.01
2024-03-26T21:01:43.789Z,68.89
2024-03-26T21:04:16.496Z,69.07
2024-03-26T21:06:51.187Z,68.95
2024-03-26T21:09:25.041Z,69.16
2024-03-26T21:11:58.250Z,69.04
2024-03-26T21:14:30.540Z,68.96
2024-03-26T21:17:10.127Z,68.96
2024-03-26T21:19:47.271Z,68.94
2024-03-26T21:22:21.300Z,68.89
2024-03-26T21:25:13.801Z,68.55
2024-03-26T21:27:48.687Z,68.76
2024-03-26T21:30:24.933Z,68.90
2024-03-26T21:33:03.952Z,68.74
2024-03-26T21:35:43.428Z,68.66
2024-03-26T21:38:23.567Z,68.68
2024-03-26T21:41:15.956Z,68.60
2024-03-26T21:43:48.572Z,68.57
2024-03-26T21:46:21.210Z,68.49
2024-03-26T21:48:54.563Z,68.51
2024-03-26T21:51:29.663Z,68.24
2024-03-26T21:54:05.930Z,68.24
2024-03-26T21:56:45.971Z,68.12
2024-03-26T21:59:19.019Z,67.90
2024-03-26T22:01:51.684Z,67.97
2024-03-26T22:04:26.180Z,67.90
2024-03-26T22:07:00.013Z,68.00
2024-03-26T22:09:33.965Z,67.94
2024-03-26T22:12:07.708Z,68.01
2024-03-26T22:14:41.969Z,67.85
2024-03-26T22:17:15.088Z,67.89
2024-03-26T22:19:53.954Z,67.96
2024-03-26T22:22:27.768Z,67.94
2024-03-26T22:25:03.706Z,67.96
2024-03-26T22:27:37.957Z,68.04
2024-03-26T22:30:16.813Z,68.15
2024-03-26T22:32:52.187Z,68.07
2024-03-26T22:35:25.481Z,67.95
2024-03-26T22:38:01.162Z,68.12
2024-03-26T22:40:37.907Z,67.96
2024-03-26T22:43:11.692Z,68.21
2024-03-26T22:45:45.485Z,67.83
2024-03-26T22:48:19.682Z,68.03
2024-03-26T22:50:53.519Z,68.06
2024-03-26T22:53:26.793Z,68.10
2024-03-26T22:56:03.494Z,67.92
2024-03-26T22:58:38.843Z,67.87
2024-03-26T23:01:20.060Z,68.09
2024-03-26T23:03:52.964Z,67.95
2024-03-26T23:06:28.159Z,68.00
2024-03-26T23:09:02.666Z,67.94
2024-03-26T23:11:36.650Z,68.21
2024-03-26T23:14:10.740Z,68.25
2024-03-26T23:16:45.403Z,68.26
2024-03-26T23:19:19.236Z,68.45
2024-03-26T23:21:51.240Z,68.19
2024-03-26T23:24:24.899Z,68.11
2024-03-26T23:26:58.340Z,68.25
2024-03-26T23:29:30.817Z,68.22
2024-03-26T23:32:05.090Z,68.31
2024-03-26T23:34:38.873Z,68.32
2024-03-26T23:37:13.540Z,68.41
2024-03-26T23:39:46.465Z,68.31
2024-03-26T23:42:20.917Z,68.42
2024-03-26T23:44:56.069Z,68.45
2024-03-26T23:47:29.332Z,68.53
2024-03-26T23:50:04.062Z,68.51
2024-03-26T23:52:39.178Z,68.43
2024-03-26T23:55:13.011Z,68.55
2024-03-26T23:57:47.393Z,68.65
